createdAt,value
2018-07-08T00:00:32.354Z,89.81
2018-07-08T00:03:01.727Z,89.77
2018-07-08T00:05:31.082Z,89.20
2018-07-08T00:08:00.735Z,90.95
2018-07-08T00:10:30.015Z,90.47
2018-07-08T00:12:59.292Z,89.93
2018-07-08T00:15:28.560Z,89.72
2018-07-08T00:17:58.820Z,89.58
2018-07-08T00:20:28.346Z,91.53
2018-07-08T00:22:57.729Z,91.01
2018-07-08T00:25:27.275Z,90.13
2018-07-08T00:27:56.696Z,90.50
2018-07-08T00:30:26.000Z,91.28
2018-07-08T00:32:55.417Z,90.04
2018-07-08T00:35:24.717Z,90.56
2018-07-08T00:37:54.901Z,91.44
2018-07-08T00:40:24.613Z,90.98
2018-07-08T00:42:54.168Z,91.47
2018-07-08T00:45:23.666Z,91.67
2018-07-08T00:47:53.190Z,90.38
2018-07-08T00:50:22.438Z,89.95
2018-07-08T00:52:51.706Z,90.47
2018-07-08T00:55:20.945Z,91.37
2018-07-08T00:57:50.307Z,92.07
2018-07-08T01:00:36.986Z,92.36
2018-07-08T01:03:09.570Z,91.95
2018-07-08T01:05:38.932Z,92.40
2018-07-08T01:08:08.387Z,92.16
2018-07-08T01:10:37.825Z,91.36
2018-07-08T01:13:07.247Z,91.83
2018-07-08T01:15:36.619Z,91.00
2018-07-08T01:18:05.995Z,90.86
2018-07-08T01:20:35.527Z,91.10
2018-07-08T01:23:04.856Z,91.82
2018-07-08T01:25:45.474Z,91.17
2018-07-08T01:28:15.219Z,92.01
2018-07-08T01:30:44.601Z,93.11
2018-07-08T01:33:14.086Z,92.85
2018-07-08T01:35:43.597Z,93.81
2018-07-08T01:38:12.845Z,93.55
2018-07-08T01:40:42.264Z,92.07
2018-07-08T01:43:11.621Z,92.30
2018-07-08T01:45:40.874Z,92.42
2018-07-08T01:48:10.226Z,92.26
2018-07-08T01:50:39.606Z,92.50
2018-07-08T01:53:10.211Z,91.70
2018-07-08T01:55:39.656Z,92.49
2018-07-08T01:58:09.024Z,92.44
2018-07-08T02:00:38.460Z,91.42
2018-07-08T02:03:07.910Z,91.34
2018-07-08T02:05:37.453Z,91.38
2018-07-08T02:08:06.722Z,92.52
2018-07-08T02:10:36.527Z,93.54
2018-07-08T02:13:05.997Z,93.50
2018-07-08T02:15:35.512Z,93.81
2018-07-08T02:18:05.009Z,94.78
2018-07-08T02:20:34.359Z,94.37
2018-07-08T02:23:03.573Z,94.13
2018-07-08T02:25:33.143Z,93.67
2018-07-08T02:28:02.520Z,93.04
2018-07-08T02:30:31.979Z,93.35
2018-07-08T02:33:01.344Z,94.10
2018-07-08T02:35:30.937Z,92.51
2018-07-08T02:38:00.379Z,92.63
2018-07-08T02:40:29.715Z,92.42
2018-07-08T02:42:59.208Z,92.80
2018-07-08T02:45:28.640Z,94.45
2018-07-08T02:47:57.889Z,94.13
2018-07-08T02:50:27.466Z,94.36
2018-07-08T02:52:56.716Z,95.07
2018-07-08T02:55:26.075Z,93.99
2018-07-08T02:57:55.300Z,95.20
2018-07-08T03:00:24.637Z,94.80
2018-07-08T03:02:53.946Z,94.59
2018-07-08T03:05:23.325Z,94.71
2018-07-08T03:07:52.882Z,95.02
2018-07-08T03:10:22.323Z,94.47
2018-07-08T03:12:51.671Z,94.35
2018-07-08T03:15:20.940Z,94.29
2018-07-08T03:17:50.389Z,94.92
2018-07-08T03:20:19.631Z,94.95
2018-07-08T03:22:49.015Z,94.79
2018-07-08T03:25:18.530Z,94.81
2018-07-08T03:27:47.932Z,96.19
2018-07-08T03:30:17.250Z,95.94
2018-07-08T03:32:46.862Z,94.27
2018-07-08T03:35:16.362Z,94.48
2018-07-08T03:37:45.702Z,94.71
2018-07-08T03:40:15.060Z,94.83
2018-07-08T03:42:44.399Z,94.66
2018-07-08T03:45:13.662Z,94.80
2018-07-08T03:47:42.832Z,95.31
2018-07-08T03:50:12.210Z,96.62
2018-07-08T03:52:41.587Z,95.60
2018-07-08T03:55:10.943Z,94.24
2018-07-08T03:57:40.663Z,94.39
2018-07-08T04:00:10.064Z,94.67
2018-07-08T04:02:39.840Z,94.45
2018-07-08T04:05:09.223Z,95.42
2018-07-08T04:07:38.750Z,94.80
2018-07-08T04:10:08.171Z,94.03
2018-07-08T04:12:37.411Z,94.54
2018-07-08T04:15:06.665Z,94.73
2018-07-08T04:17:36.086Z,94.80
2018-07-08T04:20:05.559Z,95.32
2018-07-08T04:22:34.887Z,95.96
2018-07-08T04:25:04.137Z,95.62
2018-07-08T04:27:33.989Z,95.11
2018-07-08T04:30:03.394Z,95.04
2018-07-08T04:32:32.714Z,95.37
2018-07-08T04:35:02.048Z,95.08
2018-07-08T04:37:31.596Z,93.88
2018-07-08T04:40:00.923Z,94.84
2018-07-08T04:42:30.336Z,94.65
2018-07-08T04:44:59.645Z,95.16
2018-07-08T04:47:29.238Z,95.24
2018-07-08T04:49:58.475Z,94.17
2018-07-08T04:52:27.846Z,93.78
2018-07-08T04:54:57.076Z,93.37
2018-07-08T04:57:26.562Z,93.16
2018-07-08T04:59:55.919Z,93.07
2018-07-08T05:02:25.335Z,92.67
2018-07-08T05:04:54.680Z,93.47
2018-07-08T05:07:24.127Z,91.79
2018-07-08T05:09:53.487Z,89.67
2018-07-08T05:12:23.021Z,90.18
2018-07-08T05:14:52.354Z,89.22
2018-07-08T05:17:22.162Z,87.71
2018-07-08T05:19:51.365Z,83.09
2018-07-08T05:22:20.698Z,81.41
2018-07-08T05:24:50.281Z,81.36
2018-07-08T05:27:19.592Z,80.05
2018-07-08T05:29:48.969Z,82.22
2018-07-08T05:32:18.390Z,81.83
2018-07-08T05:34:47.819Z,80.27
2018-07-08T05:37:17.433Z,80.97
2018-07-08T05:39:47.733Z,80.97
2018-07-08T05:42:17.838Z,78.85
2018-07-08T05:44:47.326Z,77.92
2018-07-08T05:47:19.758Z,79.21
2018-07-08T05:49:49.180Z,79.09
2018-07-08T05:52:18.545Z,76.97
2018-07-08T05:54:47.674Z,79.65
2018-07-08T05:57:17.106Z,80.82
2018-07-08T05:59:46.393Z,80.96
2018-07-08T06:02:16.066Z,81.29
2018-07-08T06:04:45.081Z,80.61
2018-07-08T06:07:14.267Z,81.96
2018-07-08T06:09:43.778Z,79.93
2018-07-08T06:12:13.103Z,81.02
2018-07-08T06:14:44.240Z,80.39
2018-07-08T06:17:13.605Z,80.33
2018-07-08T06:19:42.906Z,77.02
2018-07-08T06:22:12.010Z,76.25
2018-07-08T06:24:41.148Z,71.60
2018-07-08T06:27:10.827Z,70.72
2018-07-08T06:29:40.158Z,71.67
2018-07-08T06:32:09.670Z,74.40
2018-07-08T06:34:39.264Z,75.22
2018-07-08T06:37:08.353Z,77.09
2018-07-08T06:39:37.367Z,75.82
2018-07-08T06:42:06.845Z,75.78
2018-07-08T06:44:36.435Z,77.01
2018-07-08T06:47:05.915Z,77.20
2018-07-08T06:49:38.652Z,77.11
2018-07-08T06:52:08.882Z,76.22
2018-07-08T06:54:38.312Z,76.75
2018-07-08T06:57:07.787Z,77.61
2018-07-08T06:59:37.465Z,74.96
2018-07-08T07:02:06.772Z,75.83
2018-07-08T07:04:36.260Z,74.67
2018-07-08T07:07:05.596Z,72.86
2018-07-08T07:09:35.161Z,70.88
2018-07-08T07:12:04.585Z,70.51
2018-07-08T07:14:34.094Z,70.13
2018-07-08T07:17:03.583Z,70.92
2018-07-08T07:19:32.917Z,71.13
2018-07-08T07:22:02.303Z,67.90
2018-07-08T07:24:31.827Z,66.96
2018-07-08T07:27:01.716Z,67.94
2018-07-08T07:29:31.066Z,69.59
2018-07-08T07:32:03.069Z,70.17
2018-07-08T07:34:32.460Z,69.72
2018-07-08T07:37:02.000Z,68.75
2018-07-08T07:39:32.343Z,65.61
2018-07-08T07:42:01.973Z,66.78
2018-07-08T07:44:31.354Z,62.23
2018-07-08T07:47:01.388Z,61.86
2018-07-08T07:49:31.290Z,62.54
2018-07-08T07:52:00.734Z,63.43
2018-07-08T07:54:30.401Z,64.64
2018-07-08T07:56:59.883Z,63.69
2018-07-08T07:59:29.337Z,63.46
2018-07-08T08:01:58.757Z,62.55
2018-07-08T08:04:28.204Z,58.77
2018-07-08T08:06:58.656Z,66.96
2018-07-08T08:09:28.051Z,63.22
2018-07-08T08:11:57.492Z,63.08
2018-07-08T08:14:26.915Z,69.20
2018-07-08T08:16:56.476Z,67.22
2018-07-08T08:19:26.043Z,68.08
2018-07-08T08:21:55.541Z,67.73
2018-07-08T08:24:25.048Z,68.15
2018-07-08T08:26:55.159Z,69.48
2018-07-08T08:29:24.760Z,70.56
2018-07-08T08:31:54.400Z,71.33
2018-07-08T08:35:02.610Z,69.47
2018-07-08T08:37:36.956Z,63.08
2018-07-08T08:40:06.734Z,60.73
2018-07-08T08:42:36.445Z,63.70
2018-07-08T08:45:06.153Z,67.87
2018-07-08T08:47:35.928Z,70.02
2018-07-08T08:50:05.414Z,70.60
2018-07-08T08:52:34.799Z,69.66
2018-07-08T08:55:04.281Z,68.46
2018-07-08T08:57:33.861Z,69.46
2018-07-08T09:00:03.172Z,70.41
2018-07-08T09:02:32.440Z,72.75
2018-07-08T09:05:01.787Z,69.87
2018-07-08T09:07:31.236Z,69.78
2018-07-08T09:10:00.669Z,71.30
2018-07-08T09:12:30.849Z,72.72
2018-07-08T09:15:00.271Z,71.99
2018-07-08T09:17:29.718Z,72.37
2018-07-08T09:19:59.237Z,71.63
2018-07-08T09:22:29.562Z,72.39
2018-07-08T09:24:58.947Z,70.63
2018-07-08T09:27:28.313Z,71.02
2018-07-08T09:29:57.751Z,72.70
2018-07-08T09:32:27.649Z,70.05
2018-07-08T09:34:57.069Z,70.24
2018-07-08T09:37:26.494Z,71.09
2018-07-08T09:39:56.060Z,71.12
2018-07-08T09:42:25.766Z,70.21
2018-07-08T09:44:55.280Z,70.74
2018-07-08T09:47:24.725Z,73.38
2018-07-08T09:49:54.276Z,74.52
2018-07-08T09:52:24.654Z,73.83
2018-07-08T09:54:54.430Z,72.73
2018-07-08T09:57:23.732Z,72.59
2018-07-08T09:59:53.179Z,71.92
2018-07-08T10:02:22.676Z,69.55
2018-07-08T10:04:52.144Z,70.27
2018-07-08T10:07:21.688Z,74.02
2018-07-08T10:09:51.056Z,76.14
2018-07-08T10:12:20.565Z,77.72
2018-07-08T10:14:49.859Z,73.54
2018-07-08T10:17:19.616Z,72.63
2018-07-08T10:19:49.188Z,72.29
2018-07-08T10:22:18.387Z,74.12
2018-07-08T10:24:48.474Z,73.25
2018-07-08T10:28:29.829Z,71.34
2018-07-08T10:30:59.455Z,69.03
2018-07-08T10:33:38.302Z,66.54
2018-07-08T10:36:08.261Z,69.19
2018-07-08T10:38:38.996Z,69.84
2018-07-08T10:41:08.217Z,71.86
2018-07-08T10:43:37.629Z,72.92
2018-07-08T10:46:07.400Z,74.60
2018-07-08T10:48:36.870Z,71.92
2018-07-08T10:51:06.499Z,72.77
2018-07-08T10:53:36.027Z,70.74
2018-07-08T10:56:05.574Z,73.14
2018-07-08T10:58:35.002Z,73.82
2018-07-08T11:01:04.326Z,73.04
2018-07-08T11:03:33.853Z,76.22
2018-07-08T11:06:03.402Z,77.45
2018-07-08T11:08:33.041Z,78.13
2018-07-08T11:11:02.344Z,78.74
2018-07-08T11:13:31.577Z,80.95
2018-07-08T11:16:01.161Z,81.21
2018-07-08T11:18:30.614Z,79.92
2018-07-08T11:21:00.261Z,78.87
2018-07-08T11:23:29.780Z,80.13
2018-07-08T11:25:59.776Z,81.76
2018-07-08T11:28:29.280Z,83.64
2018-07-08T11:30:59.117Z,83.68
2018-07-08T11:33:28.362Z,82.72
2018-07-08T11:35:57.743Z,82.12
2018-07-08T11:38:27.186Z,82.07
2018-07-08T11:40:56.577Z,81.35
2018-07-08T11:43:25.980Z,81.57
2018-07-08T11:45:55.489Z,81.82
2018-07-08T11:48:24.893Z,81.28
2018-07-08T11:50:54.220Z,80.21
2018-07-08T11:53:23.507Z,79.04
2018-07-08T11:55:52.807Z,79.81
2018-07-08T11:58:22.300Z,80.17
2018-07-08T12:00:51.492Z,79.07
2018-07-08T12:03:21.031Z,79.22
2018-07-08T12:05:50.717Z,81.29
2018-07-08T12:08:20.353Z,81.79
2018-07-08T12:10:49.733Z,83.52
2018-07-08T12:13:19.061Z,83.51
2018-07-08T12:15:48.379Z,83.72
2018-07-08T12:18:17.619Z,76.36
2018-07-08T12:20:47.145Z,76.17
2018-07-08T12:23:17.216Z,76.42
2018-07-08T12:25:46.970Z,77.48
2018-07-08T12:28:16.277Z,79.88
2018-07-08T12:30:45.871Z,80.24
2018-07-08T12:33:15.454Z,79.00
2018-07-08T12:35:44.878Z,78.49
2018-07-08T12:38:14.415Z,79.68
2018-07-08T12:40:43.932Z,77.33
2018-07-08T12:43:14.245Z,79.54
2018-07-08T12:45:43.803Z,80.21
2018-07-08T12:48:13.694Z,80.01
2018-07-08T12:50:43.191Z,81.73
2018-07-08T12:53:12.616Z,80.49
2018-07-08T12:55:41.966Z,81.29
2018-07-08T12:58:11.490Z,81.91
2018-07-08T13:00:41.578Z,82.21
2018-07-08T13:03:10.987Z,79.25
2018-07-08T13:05:40.322Z,75.12
2018-07-08T13:08:09.763Z,71.75
2018-07-08T13:10:39.447Z,68.91
2018-07-08T13:13:08.843Z,68.82
2018-07-08T13:15:38.332Z,69.14
2018-07-08T13:18:07.758Z,68.27
2018-07-08T13:20:37.047Z,68.84
2018-07-08T13:23:06.397Z,69.28
2018-07-08T13:25:35.940Z,71.89
2018-07-08T13:28:05.640Z,71.31
2018-07-08T13:30:35.107Z,71.98
2018-07-08T13:33:04.606Z,70.00
2018-07-08T13:35:33.967Z,68.03
2018-07-08T13:38:03.345Z,69.12
2018-07-08T13:40:33.278Z,69.13
2018-07-08T13:43:04.310Z,66.95
2018-07-08T13:45:33.767Z,69.46
2018-07-08T13:48:03.061Z,70.68
2018-07-08T13:50:32.612Z,72.89
2018-07-08T13:53:02.107Z,74.02
2018-07-08T13:55:31.941Z,74.05
2018-07-08T13:58:01.633Z,72.81
2018-07-08T14:00:31.243Z,72.83
2018-07-08T14:03:00.734Z,76.12
2018-07-08T14:05:30.520Z,77.77
2018-07-08T14:08:00.082Z,78.99
2018-07-08T14:10:29.446Z,79.07
2018-07-08T14:12:59.371Z,80.33
2018-07-08T14:15:30.849Z,78.42
2018-07-08T14:18:00.183Z,77.81
2018-07-08T14:20:29.530Z,79.05
2018-07-08T14:22:59.160Z,77.89
2018-07-08T14:25:28.676Z,78.17
2018-07-08T14:27:58.053Z,78.54
2018-07-08T14:30:27.580Z,77.82
2018-07-08T14:32:57.176Z,78.15
2018-07-08T14:35:26.723Z,78.15
2018-07-08T14:37:56.197Z,78.50
2018-07-08T14:40:26.305Z,79.85
2018-07-08T14:42:55.752Z,79.84
2018-07-08T14:45:25.213Z,76.75
2018-07-08T14:47:54.523Z,71.31
2018-07-08T14:50:23.944Z,73.47
2018-07-08T14:52:53.277Z,75.69
2018-07-08T14:55:22.596Z,75.88
2018-07-08T14:57:51.925Z,71.68
2018-07-08T15:00:21.609Z,69.95
2018-07-08T15:02:51.103Z,72.06
2018-07-08T15:05:20.639Z,73.50
2018-07-08T15:07:50.113Z,72.78
2018-07-08T15:10:19.406Z,72.56
2018-07-08T15:12:48.870Z,72.70
2018-07-08T15:15:18.392Z,73.50
2018-07-08T15:17:48.145Z,75.16
2018-07-08T15:20:17.574Z,76.02
2018-07-08T15:22:47.471Z,74.80
2018-07-08T15:25:18.183Z,76.97
2018-07-08T15:27:48.263Z,75.76
2018-07-08T15:30:17.813Z,76.67
2018-07-08T15:32:47.379Z,77.22
2018-07-08T15:35:16.786Z,78.55
2018-07-08T15:37:46.363Z,77.34
2018-07-08T15:40:15.914Z,77.67
2018-07-08T15:42:45.557Z,76.02
2018-07-08T15:45:15.729Z,73.73
2018-07-08T15:47:45.135Z,75.01
2018-07-08T15:50:14.782Z,75.17
2018-07-08T15:52:44.444Z,76.53
2018-07-08T15:55:13.886Z,77.13
2018-07-08T15:57:45.094Z,75.24
2018-07-08T16:00:15.785Z,76.92
2018-07-08T16:02:46.650Z,75.05
2018-07-08T16:05:16.407Z,73.56
2018-07-08T16:07:45.877Z,70.32
2018-07-08T16:10:15.392Z,72.00
2018-07-08T16:12:44.925Z,69.49
2018-07-08T16:15:14.685Z,71.67
2018-07-08T16:17:44.272Z,69.07
2018-07-08T16:20:15.392Z,64.71
2018-07-08T16:22:44.896Z,63.01
2018-07-08T16:25:15.043Z,66.99
2018-07-08T16:27:44.384Z,66.08
2018-07-08T16:30:14.762Z,63.16
2018-07-08T16:32:44.443Z,65.60
2018-07-08T16:35:14.468Z,68.36
2018-07-08T16:37:44.124Z,71.00
2018-07-08T16:40:15.083Z,69.09
2018-07-08T16:42:45.496Z,70.33
2018-07-08T16:45:15.470Z,70.91
2018-07-08T16:47:46.668Z,67.54
2018-07-08T16:50:17.730Z,67.33
2018-07-08T16:52:47.464Z,68.14
2018-07-08T16:55:17.793Z,70.69
2018-07-08T16:57:48.979Z,71.36
2018-07-08T17:00:18.996Z,72.16
2018-07-08T17:02:48.375Z,72.77
2018-07-08T17:05:18.169Z,66.13
2018-07-08T17:07:47.906Z,61.60
2018-07-08T17:10:17.299Z,63.40
2018-07-08T17:12:46.988Z,64.68
2018-07-08T17:15:17.592Z,67.12
2018-07-08T17:17:48.469Z,69.79
2018-07-08T17:20:19.343Z,69.59
2018-07-08T17:22:48.760Z,70.75
2018-07-08T17:25:18.443Z,67.96
2018-07-08T17:27:48.407Z,66.16
2018-07-08T17:30:18.776Z,70.52
2018-07-08T17:32:48.154Z,72.36
2018-07-08T17:35:18.592Z,71.96
2018-07-08T17:37:48.168Z,70.57
2018-07-08T17:40:17.771Z,71.83
2018-07-08T17:42:48.123Z,72.96
2018-07-08T17:45:19.627Z,70.26
2018-07-08T17:47:52.095Z,69.96
2018-07-08T17:50:22.590Z,71.27
2018-07-08T17:52:54.225Z,70.56
2018-07-08T17:55:24.000Z,73.57
2018-07-08T17:57:56.135Z,74.24
2018-07-08T18:00:26.620Z,75.84
2018-07-08T18:02:56.918Z,74.51
2018-07-08T18:05:27.263Z,73.29
2018-07-08T18:07:56.979Z,74.54
2018-07-08T18:10:28.361Z,75.46
2018-07-08T18:12:58.351Z,76.10
2018-07-08T18:15:28.470Z,74.61
2018-07-08T18:18:00.067Z,74.65
2018-07-08T18:20:30.407Z,74.74
2018-07-08T18:23:00.386Z,75.72
2018-07-08T18:25:30.903Z,75.00
2018-07-08T18:28:00.465Z,75.54
2018-07-08T18:30:29.884Z,77.55
2018-07-08T18:32:59.418Z,78.03
2018-07-08T18:35:30.486Z,80.33
2018-07-08T18:38:00.285Z,80.67
2018-07-08T18:40:29.869Z,79.69
2018-07-08T18:42:59.306Z,79.12
2018-07-08T18:45:29.155Z,77.68
2018-07-08T18:47:58.927Z,78.33
2018-07-08T18:50:29.116Z,77.93
2018-07-08T18:52:59.054Z,77.52
2018-07-08T18:55:29.845Z,76.86
2018-07-08T18:57:59.450Z,76.78
2018-07-08T19:00:29.938Z,78.12
2018-07-08T19:02:59.460Z,77.40
2018-07-08T19:05:28.859Z,77.51
2018-07-08T19:07:58.304Z,79.09
2018-07-08T19:10:28.610Z,79.44
2018-07-08T19:12:59.160Z,78.99
2018-07-08T19:15:29.366Z,79.39
2018-07-08T19:17:59.426Z,79.28
2018-07-08T19:20:32.219Z,77.95
2018-07-08T19:23:02.752Z,78.04
2018-07-08T19:25:33.030Z,78.42
2018-07-08T19:28:04.667Z,79.14
2018-07-08T19:30:35.716Z,78.01
2018-07-08T19:33:05.308Z,77.85
2018-07-08T19:35:41.386Z,78.12
2018-07-08T19:38:12.304Z,78.60
2018-07-08T19:40:43.075Z,81.50
2018-07-08T19:43:14.858Z,79.72
2018-07-08T19:45:44.575Z,80.25
2018-07-08T19:48:14.477Z,81.01
2018-07-08T19:50:45.202Z,78.93
2018-07-08T19:53:16.233Z,79.75
2018-07-08T19:55:45.653Z,82.31
2018-07-08T19:58:15.752Z,82.24
2018-07-08T20:00:46.361Z,81.40
2018-07-08T20:03:16.220Z,80.69
2018-07-08T20:05:45.729Z,78.83
2018-07-08T20:08:15.418Z,80.50
2018-07-08T20:10:46.404Z,80.70
2018-07-08T20:13:15.708Z,81.23
2018-07-08T20:15:45.538Z,81.65
2018-07-08T20:18:15.179Z,81.24
2018-07-08T20:20:44.822Z,81.87
2018-07-08T20:23:14.439Z,81.77
2018-07-08T20:25:44.054Z,81.58
2018-07-08T20:28:13.416Z,82.85
2018-07-08T20:30:43.084Z,83.87
2018-07-08T20:33:13.300Z,83.81
2018-07-08T20:35:43.507Z,82.66
2018-07-08T20:38:13.322Z,83.48
2018-07-08T20:40:44.073Z,83.27
2018-07-08T20:43:13.550Z,82.46
2018-07-08T20:45:42.906Z,83.01
2018-07-08T20:48:14.033Z,83.55
2018-07-08T20:50:43.559Z,84.00
2018-07-08T20:53:13.597Z,84.19
2018-07-08T20:55:43.427Z,83.12
2018-07-08T20:58:12.769Z,84.91
2018-07-08T21:00:42.496Z,85.15
2018-07-08T21:03:12.624Z,84.96
2018-07-08T21:05:42.827Z,84.73
2018-07-08T21:08:12.290Z,84.69
2018-07-08T21:10:42.601Z,84.49
2018-07-08T21:13:12.081Z,83.74
2018-07-08T21:15:41.697Z,84.97
2018-07-08T21:18:11.204Z,87.19
2018-07-08T21:20:41.094Z,87.12
2018-07-08T21:23:10.557Z,87.77
2018-07-08T21:25:40.114Z,88.84
2018-07-08T21:28:09.540Z,87.92
2018-07-08T21:30:39.273Z,87.24
2018-07-08T21:33:08.697Z,88.29
2018-07-08T21:35:38.379Z,87.30
2018-07-08T21:38:07.739Z,87.16
2018-07-08T21:40:37.036Z,87.29
2018-07-08T21:43:06.353Z,87.56
2018-07-08T21:45:35.800Z,89.33
2018-07-08T21:48:05.051Z,89.50
2018-07-08T21:50:34.423Z,89.97
2018-07-08T21:53:03.663Z,89.62
2018-07-08T21:55:33.046Z,89.94
2018-07-08T21:58:02.308Z,89.43
2018-07-08T22:00:33.416Z,89.96
2018-07-08T22:03:02.872Z,89.72
2018-07-08T22:05:32.493Z,89.62
2018-07-08T22:08:04.941Z,89.68
2018-07-08T22:10:34.829Z,89.07
2018-07-08T22:13:04.571Z,89.03
2018-07-08T22:15:34.037Z,90.21
2018-07-08T22:18:03.591Z,89.11
2018-07-08T22:20:32.890Z,88.64
2018-07-08T22:23:02.295Z,90.11
2018-07-08T22:25:32.334Z,88.90
2018-07-08T22:28:01.771Z,88.64
2018-07-08T22:30:31.340Z,87.89
2018-07-08T22:33:00.796Z,89.01
2018-07-08T22:35:30.449Z,91.09
2018-07-08T22:37:59.983Z,90.65
2018-07-08T22:40:29.455Z,90.87
2018-07-08T22:42:58.823Z,89.96
2018-07-08T22:45:28.306Z,90.89
2018-07-08T22:47:58.596Z,90.40
2018-07-08T22:50:28.102Z,89.96
2018-07-08T22:52:57.523Z,89.22
2018-07-08T22:55:26.848Z,91.67
2018-07-08T22:57:56.119Z,92.92
2018-07-08T23:00:36.064Z,91.49
2018-07-08T23:03:16.077Z,91.77
2018-07-08T23:05:45.435Z,91.65
2018-07-08T23:08:15.056Z,91.82
2018-07-08T23:10:44.545Z,91.38
2018-07-08T23:13:13.857Z,90.55
2018-07-08T23:15:43.209Z,90.91
2018-07-08T23:18:12.654Z,91.29
2018-07-08T23:20:42.040Z,90.99
2018-07-08T23:23:11.437Z,91.60
2018-07-08T23:25:40.820Z,91.48
2018-07-08T23:28:10.333Z,91.15
2018-07-08T23:30:39.730Z,91.83
2018-07-08T23:33:09.083Z,91.01
2018-07-08T23:35:39.326Z,90.79
2018-07-08T23:38:08.810Z,90.83
2018-07-08T23:40:38.909Z,91.44
2018-07-08T23:43:08.616Z,90.80
2018-07-08T23:45:38.855Z,90.75
2018-07-08T23:48:08.262Z,90.40
2018-07-08T23:50:38.275Z,91.18
2018-07-08T23:53:08.284Z,90.75
2018-07-08T23:55:37.471Z,91.69
2018-07-08T23:58:07.176Z,92.43
